Strona główna
METAR-TAF:

METAR-TAF

Lotnisko :

Port lotniczy Madera

Funchal, Madera, Portugalia

Szerokość geograficzna: 32-41-52N, Długość geograficzna: 016-46-28W, wysokość: 59 m

Aktualna obserwacja pogody

Raport powstał 26 minut temu, godzina 13:00 UTC
Wiatr 16 kt od północno-północny wschód, zmienny między północ i północny wschód
Temperatura 19°C
Wilgotność 60%
Ciśnienie 1022 hPa
Widzialność 10 km lub więcej
Mało chmury na wysokości 1600 ft

METAR: LPMA 201300Z 02016KT 350V050 9999 FEW016 19/11 Q1022

czas: 13:26 (13:26 UTC)

Prognoza

Raport powstał 2 godziny i 26 minut temu, godzina 11:00 UTC
Prognoza ważna od 20 godzina 12 UTC do 21 godzina 12 UTC
Wiatr 15 kt od północno-północny wschód
Widzialność 10 km lub więcej
Rozproszone chmury na wysokości 1500 ft
Przejściowo
od 20 godzina 12 UTC do 20 godzina 22 UTC
Wiatr 20 kt od północ w porywach dochodzący do 30 kt

TAF: LPMA 201100Z 2012/2112 02015KT 9999 SCT015 TEMPO 2012/2022 01020G30KT

Obserwacja i prognoza pogody dla ponad 4000 lotnisk (raport METAR i TAF).

Dostępne stacje oznaczono żółtymi i czerwonymi punktami na mapie.

Najedź kursorem aby zobaczyć nazwę stacji.

Kliknij aby zobaczyć obserwacje i prognozy pogody.

Aby zmienić mapę: kliknij na zielony przycisk z czarnym krzyżykiem, aby powiększyć; na zielony przycisk z myślnikiem, aby pomniejszyć; na zielone strzałki, aby przejść do map sąsiednich.


METAR-TAF: